Time;durP1;ratioP1;P1;durP2;ratioP2;P2;SDS_P1;SDS_P2;PMS_P1;PMS_P2;Temp;Humidity;BMP_temperature;BMP_pressure;BME280_temperature;BME280_humidity;BME280_pressure;Samples;Min_cycle;Max_cycle;Signal;HPM_P1;HPM_P2
2023/03/16 00:00:24;;;;;;;6.15;3.63;;;5.70;99.90;;;;;;6220214;23;20103;-91
2023/03/16 00:02:50;;;;;;;4.95;3.63;;;5.70;99.90;;;;;;6223534;23;20011;-91
2023/03/16 00:05:15;;;;;;;4.93;3.95;;;5.70;99.90;;;;;;6224031;23;20423;-92
2023/03/16 00:07:42;;;;;;;6.18;3.60;;;5.70;99.90;;;;;;6221230;23;20100;-93
2023/03/16 00:10:11;;;;;;;4.95;3.85;;;5.70;99.90;;;;;;6219787;23;20004;-93
2023/03/16 00:12:37;;;;;;;6.45;3.53;;;5.70;99.90;;;;;;6219335;23;20015;-92
2023/03/16 00:15:03;;;;;;;6.95;4.40;;;5.70;99.90;;;;;;6219360;23;20054;-93
2023/03/16 00:17:29;;;;;;;4.85;3.60;;;5.80;99.90;;;;;;6219850;23;20007;-94
2023/03/16 00:19:56;;;;;;;5.55;3.72;;;5.80;99.90;;;;;;6219914;23;20095;-94
2023/03/16 00:22:28;;;;;;;5.88;4.13;;;5.80;99.90;;;;;;6219586;23;20008;-93
2023/03/16 00:24:54;;;;;;;5.70;4.00;;;5.80;99.90;;;;;;6219860;23;20090;-93
2023/03/16 00:27:21;;;;;;;7.50;3.80;;;5.80;99.90;;;;;;6219845;23;20269;-92
2023/03/16 00:29:48;;;;;;;4.55;3.83;;;5.80;99.90;;;;;;6219839;23;20083;-93
2023/03/16 00:32:19;;;;;;;5.75;4.05;;;5.80;99.90;;;;;;6219942;23;20095;-93
2023/03/16 00:34:46;;;;;;;6.55;4.07;;;5.90;99.90;;;;;;6219002;23;20000;-94
2023/03/16 00:37:14;;;;;;;5.93;4.57;;;5.90;99.90;;;;;;6219879;23;20417;-94
2023/03/16 00:39:40;;;;;;;5.35;3.97;;;5.90;99.90;;;;;;6219455;23;20040;-93
2023/03/16 00:42:08;;;;;;;7.65;5.00;;;5.90;99.90;;;;;;6220108;23;20000;-93
2023/03/16 00:44:34;;;;;;;6.57;4.43;;;6.00;99.90;;;;;;6219570;23;20018;-93
2023/03/16 00:47:00;;;;;;;7.53;4.63;;;6.00;99.90;;;;;;6220788;23;20000;-93
2023/03/16 00:49:26;;;;;;;6.13;4.07;;;6.00;99.90;;;;;;6221473;23;20095;-92
2023/03/16 00:51:51;;;;;;;7.47;4.05;;;6.00;99.90;;;;;;6221539;23;20004;-93
2023/03/16 00:54:24;;;;;;;6.30;3.65;;;6.00;99.90;;;;;;6223487;23;20057;-93
2023/03/16 00:56:50;;;;;;;5.00;4.50;;;6.00;99.90;;;;;;6226320;23;20012;-92
2023/03/16 00:59:18;;;;;;;5.07;4.15;;;6.00;99.90;;;;;;6226896;23;20012;-92
2023/03/16 01:01:45;;;;;;;5.63;4.18;;;6.10;99.90;;;;;;6228032;23;20000;-91
2023/03/16 01:04:10;;;;;;;6.68;3.72;;;6.10;99.90;;;;;;6240613;23;20012;-90
2023/03/16 01:06:36;;;;;;;4.57;3.72;;;6.10;99.90;;;;;;6246284;23;20048;-92
2023/03/16 01:09:04;;;;;;;5.35;4.05;;;6.10;99.90;;;;;;6246057;23;20048;-92
2023/03/16 01:11:32;;;;;;;4.20;3.78;;;6.10;99.90;;;;;;6244239;23;20004;-90
2023/03/16 01:13:59;;;;;;;6.05;3.92;;;6.20;99.90;;;;;;6230348;23;20000;-92
2023/03/16 01:16:25;;;;;;;6.65;4.72;;;6.20;99.90;;;;;;6220878;23;20012;-93
2023/03/16 01:18:52;;;;;;;8.05;5.45;;;6.20;99.90;;;;;;6219485;23;20019;-92
2023/03/16 01:21:18;;;;;;;8.20;5.43;;;6.20;99.90;;;;;;6219726;23;20019;-93
2023/03/16 01:23:44;;;;;;;6.47;4.80;;;6.20;99.90;;;;;;6219281;23;20451;-93
2023/03/16 01:26:10;;;;;;;7.78;5.32;;;6.20;99.90;;;;;;6220192;23;20015;-94
2023/03/16 01:28:36;;;;;;;6.57;4.80;;;6.20;99.90;;;;;;6221256;23;20000;-93
2023/03/16 01:31:08;;;;;;;5.90;4.90;;;6.30;99.90;;;;;;6238887;23;19997;-92
2023/03/16 01:33:34;;;;;;;6.38;4.65;;;6.30;99.90;;;;;;6230006;23;20551;-93
2023/03/16 01:36:06;;;;;;;8.23;5.13;;;6.30;99.90;;;;;;6220720;23;20004;-93
2023/03/16 01:38:32;;;;;;;7.97;5.70;;;6.30;99.90;;;;;;6219020;23;20151;-93
2023/03/16 01:40:58;;;;;;;7.22;5.72;;;6.30;99.90;;;;;;6219627;23;20461;-94
2023/03/16 01:43:26;;;;;;;5.22;4.22;;;6.40;99.90;;;;;;6219777;23;20004;-94
2023/03/16 01:46:04;;;;;;;10.60;6.03;;;6.40;99.90;;;;;;6219425;23;20032;-93
2023/03/16 01:48:37;;;;;;;6.25;4.88;;;6.40;99.90;;;;;;6219640;23;20604;-93
2023/03/16 01:51:10;;;;;;;8.57;6.10;;;6.40;99.90;;;;;;6219730;23;20008;-94
2023/03/16 01:53:39;;;;;;;9.60;6.18;;;6.50;99.90;;;;;;6219468;23;20055;-94
2023/03/16 01:56:08;;;;;;;8.88;6.05;;;6.50;99.90;;;;;;6220478;23;20055;-93
2023/03/16 01:58:36;;;;;;;10.00;6.25;;;6.50;99.90;;;;;;6219916;23;20019;-92
2023/03/16 02:01:02;;;;;;;8.55;6.50;;;6.50;99.90;;;;;;6219534;23;20027;-92
2023/03/16 02:03:29;;;;;;;10.85;6.32;;;6.50;99.90;;;;;;6219696;23;20003;-91
2023/03/16 02:06:10;;;;;;;10.55;6.93;;;6.50;99.90;;;;;;6222974;23;20016;-93
2023/03/16 02:08:37;;;;;;;;;;;6.60;99.90;;;;;;6221096;23;20084;-92
2023/03/16 02:11:04;;;;;;;9.60;6.60;;;6.60;99.90;;;;;;6219435;23;19961;-93
2023/03/16 02:13:32;;;;;;;9.02;6.35;;;6.60;99.90;;;;;;6219224;23;20090;-91
2023/03/16 02:15:58;;;;;;;9.88;7.25;;;6.60;99.90;;;;;;6219174;23;20055;-94
2023/03/16 02:18:25;;;;;;;9.80;6.68;;;6.60;99.90;;;;;;6219361;23;20004;-93
2023/03/16 02:21:15;;;;;;;9.50;6.20;;;6.70;99.90;;;;;;6219437;23;20014;-92
2023/03/16 02:23:43;;;;;;;7.97;6.25;;;6.70;99.90;;;;;;6222461;23;20004;-92
2023/03/16 02:26:11;;;;;;;12.35;7.40;;;6.70;99.90;;;;;;6248671;23;20082;-93
2023/03/16 02:28:48;;;;;;;11.18;6.50;;;6.70;99.90;;;;;;6248482;23;20075;-92
2023/03/16 02:31:18;;;;;;;8.60;5.97;;;6.70;99.90;;;;;;6221845;23;20005;-91
2023/03/16 02:33:48;;;;;;;9.15;6.53;;;6.70;99.90;;;;;;6223867;23;20013;-92
2023/03/16 02:36:15;;;;;;;9.73;6.88;;;6.80;99.90;;;;;;6225550;23;20004;-93
2023/03/16 02:38:41;;;;;;;12.80;7.68;;;6.70;99.90;;;;;;6227906;23;20016;-93
2023/03/16 02:41:16;;;;;;;8.52;6.50;;;6.80;99.90;;;;;;6228745;23;20008;-93
2023/03/16 02:43:50;;;;;;;10.70;6.00;;;6.80;99.90;;;;;;6228483;23;20274;-93
2023/03/16 02:46:18;;;;;;;9.23;6.18;;;6.80;99.90;;;;;;6227470;23;20014;-93
2023/03/16 02:49:03;;;;;;;8.43;5.65;;;6.80;99.90;;;;;;6226542;23;20039;-92
2023/03/16 02:51:29;;;;;;;9.57;6.53;;;6.90;99.90;;;;;;6223222;23;20004;-92
2023/03/16 02:53:55;;;;;;;9.65;6.00;;;6.90;99.90;;;;;;6239842;23;20008;-92
2023/03/16 02:56:23;;;;;;;9.35;6.22;;;6.80;99.90;;;;;;6244279;23;19995;-93
2023/03/16 02:58:49;;;;;;;9.60;6.10;;;6.90;99.90;;;;;;6239557;23;20031;-94
2023/03/16 03:01:15;;;;;;;11.23;6.40;;;6.90;99.90;;;;;;6227746;23;20008;-92
2023/03/16 03:03:41;;;;;;;8.20;4.90;;;6.90;99.90;;;;;;6222174;23;20034;-93
2023/03/16 03:06:07;;;;;;;10.05;4.97;;;6.90;99.90;;;;;;6221092;23;20091;-93
2023/03/16 03:08:32;;;;;;;5.22;2.75;;;7.00;99.90;;;;;;6222642;23;20019;-91
2023/03/16 03:10:58;;;;;;;6.30;3.95;;;7.00;99.90;;;;;;6221180;23;20098;-93
2023/03/16 03:13:24;;;;;;;5.28;3.90;;;7.20;99.90;;;;;;6222511;23;20019;-93
2023/03/16 03:15:49;;;;;;;5.72;3.70;;;7.20;99.90;;;;;;6221634;23;20012;-93
2023/03/16 03:18:15;;;;;;;4.90;3.40;;;7.20;99.90;;;;;;6220422;23;20036;-93
2023/03/16 03:20:41;;;;;;;7.43;3.78;;;7.30;99.90;;;;;;6221216;23;20035;-94
2023/03/16 03:23:06;;;;;;;6.32;3.90;;;7.30;99.90;;;;;;6247198;23;20008;-93
2023/03/16 03:25:33;;;;;;;5.85;3.20;;;7.40;99.90;;;;;;6220813;23;20008;-93
2023/03/16 03:28:01;;;;;;;4.63;3.60;;;7.40;99.90;;;;;;6220393;23;20008;-93
2023/03/16 03:30:27;;;;;;;4.75;3.78;;;7.40;99.90;;;;;;6220537;23;20087;-91
2023/03/16 03:32:53;;;;;;;5.05;3.72;;;7.50;99.90;;;;;;6224253;23;20000;-93
2023/03/16 03:35:20;;;;;;;4.65;2.78;;;7.60;99.90;;;;;;6220955;23;20481;-93
2023/03/16 03:37:46;;;;;;;3.17;2.35;;;7.60;99.90;;;;;;6220649;23;20058;-91
2023/03/16 03:40:15;;;;;;;4.25;3.10;;;7.60;99.90;;;;;;6220890;23;20012;-90
2023/03/16 03:42:41;;;;;;;3.88;2.90;;;7.70;99.90;;;;;;6220785;23;20053;-92
2023/03/16 03:45:11;;;;;;;4.53;2.80;;;7.70;99.90;;;;;;6220500;23;20082;-93
2023/03/16 03:47:37;;;;;;;5.68;2.53;;;7.70;99.90;;;;;;6220254;23;20032;-92
2023/03/16 03:50:03;;;;;;;3.25;2.38;;;7.70;99.90;;;;;;6220022;23;20011;-92
2023/03/16 03:52:28;;;;;;;5.68;2.60;;;7.80;99.90;;;;;;6220248;23;20474;-93
2023/03/16 03:54:54;;;;;;;2.47;2.08;;;7.80;99.90;;;;;;6220757;23;20012;-91
2023/03/16 03:57:20;;;;;;;4.88;2.58;;;7.90;99.90;;;;;;6220805;23;20015;-92
2023/03/16 03:59:45;;;;;;;4.55;2.20;;;7.90;99.90;;;;;;6219850;23;20027;-92
2023/03/16 04:02:12;;;;;;;6.82;3.10;;;7.90;99.90;;;;;;6219579;23;20004;-92
2023/03/16 04:04:38;;;;;;;3.63;2.63;;;7.90;99.90;;;;;;6220281;23;20004;-93
2023/03/16 04:07:04;;;;;;;6.50;3.05;;;8.00;99.90;;;;;;6220610;23;20000;-92
2023/03/16 04:09:35;;;;;;;6.38;3.70;;;8.00;99.90;;;;;;6221542;23;20012;-91
2023/03/16 04:12:01;;;;;;;4.45;3.33;;;8.00;99.90;;;;;;6222376;23;20011;-94
2023/03/16 04:14:28;;;;;;;5.07;2.97;;;8.00;99.90;;;;;;6220456;23;20008;-92
2023/03/16 04:16:54;;;;;;;4.88;3.10;;;8.00;99.90;;;;;;6220953;23;20416;-92
2023/03/16 04:19:22;;;;;;;8.07;4.03;;;8.10;99.90;;;;;;6232277;23;20020;-92
2023/03/16 04:21:48;;;;;;;5.00;3.42;;;8.10;99.90;;;;;;6226586;23;20009;-92
2023/03/16 04:24:14;;;;;;;5.68;3.72;;;8.00;99.90;;;;;;6220073;23;20028;-93
2023/03/16 04:26:46;;;;;;;4.65;3.63;;;8.10;99.90;;;;;;6246615;23;20035;-91
2023/03/16 04:29:13;;;;;;;5.07;3.63;;;8.10;99.90;;;;;;6219690;23;20016;-92
2023/03/16 04:31:41;;;;;;;7.50;4.50;;;8.10;99.90;;;;;;6219793;23;20091;-92
2023/03/16 04:34:07;;;;;;;4.88;3.17;;;8.10;99.90;;;;;;6219899;23;20079;-91
2023/03/16 04:36:32;;;;;;;7.13;3.65;;;8.10;99.90;;;;;;6219693;23;20047;-90
2023/03/16 04:38:58;;;;;;;4.25;2.70;;;8.10;99.90;;;;;;6214594;23;20023;-92
2023/03/16 04:41:25;;;;;;;3.92;2.70;;;8.10;99.90;;;;;;6215030;23;20015;-91
2023/03/16 04:43:51;;;;;;;5.82;3.05;;;8.10;99.90;;;;;;6214551;23;20462;-92
2023/03/16 04:46:16;;;;;;;3.28;2.60;;;8.20;99.90;;;;;;6214994;23;19997;-92
2023/03/16 04:48:42;;;;;;;4.60;2.90;;;8.20;99.90;;;;;;6214387;23;20019;-92
2023/03/16 04:51:08;;;;;;;4.50;2.80;;;8.20;99.90;;;;;;6214302;23;20008;-91
2023/03/16 04:53:34;;;;;;;4.95;3.45;;;8.20;99.90;;;;;;6213925;23;20364;-92
2023/03/16 04:56:00;;;;;;;8.82;4.63;;;8.20;99.90;;;;;;6214746;23;20004;-92
2023/03/16 04:58:25;;;;;;;8.38;5.13;;;8.30;99.90;;;;;;6213752;23;20029;-87
2023/03/16 05:00:52;;;;;;;11.75;5.00;;;8.30;99.90;;;;;;6213924;23;20016;-92
2023/03/16 05:03:18;;;;;;;7.65;5.45;;;8.30;99.90;;;;;;6214102;23;20111;-92
2023/03/16 05:05:45;;;;;;;8.02;4.55;;;8.30;99.90;;;;;;6215138;23;20004;-92
2023/03/16 05:08:11;;;;;;;7.53;3.15;;;8.30;99.90;;;;;;6214571;23;20005;-91
2023/03/16 05:10:37;;;;;;;8.68;4.90;;;8.40;99.90;;;;;;6214299;23;20099;-94
2023/03/16 05:13:04;;;;;;;8.82;5.07;;;8.40;99.90;;;;;;6213806;23;20106;-93
2023/03/16 05:15:30;;;;;;;8.73;4.40;;;8.40;99.90;;;;;;6214292;23;20210;-94
2023/03/16 05:17:56;;;;;;;5.45;3.97;;;8.50;99.90;;;;;;6214304;23;20011;-94
2023/03/16 05:20:23;;;;;;;6.95;3.53;;;8.50;99.90;;;;;;6214099;23;20016;-94
2023/03/16 05:22:49;;;;;;;5.18;3.05;;;8.50;99.90;;;;;;6214286;23;20091;-93
2023/03/16 05:25:15;;;;;;;6.10;3.42;;;8.60;99.90;;;;;;6214584;23;20054;-92
2023/03/16 05:27:47;;;;;;;4.75;3.53;;;8.60;99.90;;;;;;6214835;23;20334;-93
2023/03/16 05:30:15;;;;;;;5.35;3.42;;;8.60;99.90;;;;;;6215233;23;20009;-91
2023/03/16 05:32:41;;;;;;;4.90;2.97;;;8.70;99.90;;;;;;6215172;23;20020;-92
2023/03/16 05:35:07;;;;;;;6.03;2.67;;;8.60;99.90;;;;;;6214859;23;20032;-91
2023/03/16 05:37:36;;;;;;;3.08;2.38;;;8.70;99.90;;;;;;6217110;23;20000;-93
2023/03/16 05:40:13;;;;;;;8.27;2.83;;;8.70;99.90;;;;;;6219214;23;20091;-92
2023/03/16 05:42:38;;;;;;;3.50;2.17;;;8.70;99.90;;;;;;6219869;23;20078;-92
2023/03/16 05:45:05;;;;;;;6.57;2.50;;;8.70;99.90;;;;;;6219564;23;20004;-92
2023/03/16 05:47:30;;;;;;;5.32;2.33;;;8.70;99.90;;;;;;6219562;23;20396;-92
2023/03/16 05:49:56;;;;;;;5.30;2.60;;;8.80;99.90;;;;;;6219598;23;20011;-92
2023/03/16 05:52:24;;;;;;;2.58;2.08;;;8.80;99.90;;;;;;6217943;23;20028;-92
2023/03/16 05:54:49;;;;;;;5.43;2.20;;;8.80;99.90;;;;;;6220037;23;20008;-92
2023/03/16 05:57:15;;;;;;;3.85;2.22;;;8.80;99.90;;;;;;6220291;23;20012;-95
2023/03/16 05:59:41;;;;;;;3.55;2.20;;;8.80;99.90;;;;;;6220497;23;20015;-92
2023/03/16 06:02:09;;;;;;;7.28;3.25;;;8.80;99.90;;;;;;6222571;23;20005;-93
2023/03/16 06:04:35;;;;;;;5.25;2.30;;;8.80;99.90;;;;;;6242800;23;20008;-93
2023/03/16 06:07:01;;;;;;;5.35;2.40;;;8.80;99.90;;;;;;6243552;23;20046;-93
2023/03/16 06:09:26;;;;;;;4.88;2.22;;;8.80;99.90;;;;;;6221715;23;20312;-93
2023/03/16 06:11:52;;;;;;;7.47;2.63;;;8.80;99.90;;;;;;6220405;23;20008;-94
2023/03/16 06:14:18;;;;;;;5.65;2.00;;;8.80;99.90;;;;;;6221384;23;20256;-92
2023/03/16 06:16:44;;;;;;;8.52;2.20;;;8.80;99.90;;;;;;6222742;23;20541;-93
2023/03/16 06:19:10;;;;;;;6.18;2.25;;;8.80;99.90;;;;;;6225613;23;20018;-93
2023/03/16 06:21:35;;;;;;;3.72;1.83;;;8.80;99.90;;;;;;6224514;23;20035;-93
2023/03/16 06:24:02;;;;;;;3.53;1.85;;;8.80;99.90;;;;;;6225978;23;20570;-93
2023/03/16 06:26:27;;;;;;;7.72;2.20;;;8.80;99.90;;;;;;6227360;23;20035;-92
2023/03/16 06:28:53;;;;;;;3.53;1.67;;;8.80;99.90;;;;;;6226833;23;20289;-93
2023/03/16 06:31:19;;;;;;;4.72;1.73;;;8.80;99.90;;;;;;6230268;23;20016;-92
2023/03/16 06:33:45;;;;;;;9.13;2.50;;;8.80;99.90;;;;;;6246927;22;20011;-87
2023/03/16 06:36:10;;;;;;;7.32;2.15;;;8.80;99.90;;;;;;6247271;23;19995;-89
2023/03/16 06:38:36;;;;;;;5.15;2.08;;;8.80;99.90;;;;;;6245540;22;20056;-90
2023/03/16 06:41:02;;;;;;;3.65;1.88;;;8.80;99.90;;;;;;6232767;23;20008;-94
2023/03/16 06:43:27;;;;;;;5.85;1.90;;;8.80;99.90;;;;;;6224429;23;20360;-93
2023/03/16 06:45:53;;;;;;;7.85;1.67;;;8.80;99.90;;;;;;6222506;23;20023;-94
2023/03/16 06:48:18;;;;;;;5.32;2.13;;;8.70;99.90;;;;;;6248299;23;19997;-94
2023/03/16 06:50:45;;;;;;;3.20;1.55;;;8.80;99.90;;;;;;6222092;23;20028;-93
2023/03/16 06:53:11;;;;;;;4.13;2.00;;;8.80;99.90;;;;;;6221260;23;20435;-93
2023/03/16 06:55:36;;;;;;;7.78;1.80;;;8.80;99.90;;;;;;6220984;23;20054;-94
2023/03/16 06:58:02;;;;;;;6.93;2.15;;;8.80;99.90;;;;;;6221239;23;20593;-92
2023/03/16 07:00:29;;;;;;;7.55;1.95;;;8.70;99.90;;;;;;6221785;23;20110;-93
2023/03/16 07:02:55;;;;;;;6.47;1.92;;;8.80;99.90;;;;;;6222465;23;20028;-94
2023/03/16 07:05:20;;;;;;;7.88;2.00;;;8.80;99.90;;;;;;6222139;23;20012;-93
2023/03/16 07:07:46;;;;;;;4.03;1.70;;;8.80;99.90;;;;;;6220747;23;20007;-93
2023/03/16 07:10:14;;;;;;;6.70;1.85;;;8.70;99.90;;;;;;6220634;23;20004;-94
2023/03/16 07:12:41;;;;;;;7.95;2.05;;;8.70;99.90;;;;;;6220860;23;20004;-93
2023/03/16 07:15:07;;;;;;;3.60;2.05;;;8.70;99.90;;;;;;6220521;23;20031;-93
2023/03/16 07:17:32;;;;;;;8.52;1.95;;;8.80;99.90;;;;;;6246000;23;20008;-93
2023/03/16 07:19:58;;;;;;;8.73;2.40;;;8.80;99.90;;;;;;6221085;23;20385;-93
2023/03/16 07:22:24;;;;;;;3.97;2.08;;;8.80;99.90;;;;;;6220649;23;20009;-93
2023/03/16 07:24:55;;;;;;;7.50;2.25;;;8.80;99.90;;;;;;6247025;23;20073;-93
2023/03/16 07:27:22;;;;;;;6.55;2.13;;;8.80;99.90;;;;;;6220368;23;20313;-92
2023/03/16 07:29:49;;;;;;;7.18;2.92;;;8.80;99.90;;;;;;6220308;23;20600;-92
2023/03/16 07:32:15;;;;;;;8.27;2.47;;;8.90;99.90;;;;;;6247424;23;20008;-92
2023/03/16 07:34:40;;;;;;;10.38;3.38;;;8.90;99.90;;;;;;6220584;23;20039;-91
2023/03/16 07:37:07;;;;;;;9.13;2.60;;;8.80;99.90;;;;;;6220040;23;20011;-93
2023/03/16 07:39:34;;;;;;;8.75;2.70;;;8.80;99.90;;;;;;6246844;23;20043;-91
2023/03/16 07:42:00;;;;;;;6.90;2.67;;;8.90;99.90;;;;;;6221332;23;20035;-94
2023/03/16 07:44:26;;;;;;;8.43;2.90;;;8.90;99.90;;;;;;6220714;23;20427;-92
2023/03/16 07:46:52;;;;;;;7.00;2.70;;;8.90;99.90;;;;;;6220802;23;20091;-91
2023/03/16 07:49:18;;;;;;;9.48;2.50;;;8.90;99.90;;;;;;6246815;23;20004;-90
2023/03/16 07:51:44;;;;;;;7.03;2.15;;;8.90;99.90;;;;;;6220097;23;20001;-91
2023/03/16 07:54:09;;;;;;;6.30;2.20;;;8.90;99.90;;;;;;6247079;22;20067;-91
2023/03/16 07:56:35;;;;;;;8.55;2.20;;;8.90;99.90;;;;;;6221354;23;20077;-92
2023/03/16 07:59:01;;;;;;;7.40;2.30;;;8.90;99.90;;;;;;6222514;23;20008;-92
2023/03/16 08:01:28;;;;;;;6.65;1.58;;;8.90;99.90;;;;;;6230776;23;20087;-91
2023/03/16 08:03:54;;;;;;;8.18;2.10;;;8.90;99.90;;;;;;6225410;23;20011;-92
2023/03/16 08:06:20;;;;;;;4.93;1.80;;;8.90;99.90;;;;;;6220519;23;20292;-92
2023/03/16 08:08:46;;;;;;;5.22;1.75;;;8.90;99.90;;;;;;6220166;23;20004;-92
2023/03/16 08:11:12;;;;;;;4.93;1.80;;;8.90;99.90;;;;;;6221119;23;20396;-93
2023/03/16 08:13:42;;;;;;;6.00;1.45;;;8.90;99.90;;;;;;6220772;23;20032;-92
2023/03/16 08:16:09;;;;;;;6.50;1.92;;;8.90;99.90;;;;;;6223444;23;20008;-92
2023/03/16 08:18:35;;;;;;;3.35;1.45;;;8.80;99.90;;;;;;6221124;23;20004;-91
2023/03/16 08:21:02;;;;;;;5.20;1.73;;;8.80;99.90;;;;;;6220890;23;20008;-93
2023/03/16 08:23:28;;;;;;;2.88;1.15;;;8.80;99.90;;;;;;6220773;23;20004;-92
2023/03/16 08:25:55;;;;;;;5.15;1.40;;;8.80;99.90;;;;;;6221036;23;20141;-91
2023/03/16 08:28:23;;;;;;;5.32;1.65;;;8.80;99.90;;;;;;6247610;23;20002;-93
2023/03/16 08:30:50;;;;;;;3.28;1.52;;;8.90;99.90;;;;;;6247434;23;20010;-91
2023/03/16 08:33:22;;;;;;;2.70;1.63;;;8.90;99.90;;;;;;6246652;23;20058;-93
2023/03/16 08:35:47;;;;;;;2.83;1.23;;;8.90;99.90;;;;;;6220195;23;20008;-92
2023/03/16 08:38:14;;;;;;;4.00;1.02;;;8.90;99.90;;;;;;6220129;23;20094;-92
2023/03/16 08:40:41;;;;;;;4.13;1.10;;;8.90;99.90;;;;;;6221110;23;20030;-92
2023/03/16 08:43:07;;;;;;;3.83;1.40;;;8.90;99.90;;;;;;6222364;23;20031;-93
2023/03/16 08:45:33;;;;;;;3.38;1.50;;;9.00;99.90;;;;;;6221270;23;20030;-93
2023/03/16 08:47:59;;;;;;;3.20;1.48;;;9.00;99.90;;;;;;6220629;23;20031;-93
2023/03/16 08:50:25;;;;;;;4.15;1.77;;;9.00;99.90;;;;;;6220710;23;20011;-94
2023/03/16 08:52:51;;;;;;;3.67;1.33;;;9.00;99.90;;;;;;6221065;23;20012;-93
2023/03/16 08:55:16;;;;;;;4.05;1.27;;;9.00;99.90;;;;;;6221100;23;20045;-93
2023/03/16 08:57:44;;;;;;;3.15;1.58;;;9.00;99.90;;;;;;6220212;23;20027;-93
2023/03/16 09:00:13;;;;;;;1.50;1.40;;;9.00;99.90;;;;;;6220410;23;20424;-93
2023/03/16 09:02:43;;;;;;;2.60;1.60;;;9.00;99.90;;;;;;6220661;23;20003;-93
2023/03/16 09:05:10;;;;;;;4.03;1.77;;;9.00;99.90;;;;;;6220113;23;20046;-93
2023/03/16 09:07:38;;;;;;;3.95;1.70;;;9.00;99.90;;;;;;6220380;23;20001;-93
2023/03/16 09:10:05;;;;;;;4.55;2.10;;;9.00;99.90;;;;;;6221230;23;20004;-93
2023/03/16 09:12:34;;;;;;;8.40;1.98;;;9.10;99.90;;;;;;6221461;23;20004;-94
2023/03/16 09:15:00;;;;;;;3.88;2.35;;;9.10;99.90;;;;;;6220546;23;20004;-94
2023/03/16 09:17:25;;;;;;;5.50;2.05;;;9.10;99.90;;;;;;6220333;23;20007;-93
2023/03/16 09:19:51;;;;;;;3.20;2.13;;;9.10;99.90;;;;;;6246552;23;20141;-94
2023/03/16 09:22:18;;;;;;;9.38;2.25;;;9.00;99.90;;;;;;6220658;23;20015;-93
2023/03/16 09:24:44;;;;;;;8.40;2.67;;;9.10;99.90;;;;;;6220651;23;20015;-93
2023/03/16 09:27:10;;;;;;;3.60;1.80;;;9.10;99.90;;;;;;6225932;23;20066;-94
2023/03/16 09:29:36;;;;;;;7.68;2.72;;;9.10;99.90;;;;;;6220573;23;20087;-92
2023/03/16 09:32:02;;;;;;;4.53;2.28;;;9.10;99.90;;;;;;6220086;23;20039;-93
2023/03/16 09:34:28;;;;;;;6.70;2.35;;;9.10;99.90;;;;;;6219977;23;20004;-93
2023/03/16 09:36:55;;;;;;;7.55;2.55;;;9.10;99.90;;;;;;6221171;23;20004;-93
2023/03/16 09:39:21;;;;;;;8.60;1.90;;;9.10;99.90;;;;;;6219848;23;20026;-92
2023/03/16 09:42:20;;;;;;;3.97;1.95;;;9.10;99.90;;;;;;6220047;23;19996;-93
2023/03/16 09:45:21;;;;;;;4.72;1.70;;;9.10;99.90;;;;;;6180475;23;20186;-92
2023/03/16 09:47:50;;;;;;;7.72;1.70;;;9.20;99.90;;;;;;6099787;23;20005;-93
2023/03/16 09:50:22;;;;;;;4.72;1.92;;;9.20;99.90;;;;;;6099828;23;20005;-94
2023/03/16 09:52:50;;;;;;;6.63;2.28;;;9.20;99.90;;;;;;6100083;23;20009;-94
2023/03/16 09:55:32;;;;;;;5.13;1.80;;;9.30;99.90;;;;;;6098799;23;20010;-93
2023/03/16 09:57:59;;;;;;;5.45;1.80;;;9.30;99.90;;;;;;6100155;23;20010;-93
2023/03/16 10:00:33;;;;;;;5.20;1.90;;;9.30;99.90;;;;;;6100435;23;20446;-94
2023/03/16 10:03:10;;;;;;;7.80;2.28;;;9.30;99.90;;;;;;6100762;23;20006;-94
2023/03/16 10:05:37;;;;;;;6.38;1.88;;;9.30;99.90;;;;;;6100466;23;20029;-93
2023/03/16 10:08:23;;;;;;;5.15;1.50;;;9.30;99.90;;;;;;6100924;23;20005;-92
2023/03/16 10:10:57;;;;;;;7.78;1.90;;;9.30;99.90;;;;;;6100891;23;20022;-92
2023/03/16 10:13:50;;;;;;;6.70;1.95;;;9.30;99.90;;;;;;6101256;23;20019;-95
2023/03/16 10:16:21;;;;;;;4.18;1.88;;;9.30;99.90;;;;;;6102124;23;20631;-94
2023/03/16 10:18:57;;;;;;;12.85;5.25;;;9.30;99.90;;;;;;6103164;23;20541;-94
2023/03/16 10:21:23;;;;;;;6.32;2.17;;;9.40;99.90;;;;;;6145969;23;20008;-94
2023/03/16 10:23:52;;;;;;;8.15;2.50;;;9.40;99.90;;;;;;6223288;23;20023;-94
2023/03/16 10:26:32;;;;;;;7.43;1.90;;;9.50;99.90;;;;;;6225296;23;20004;-93
2023/03/16 10:28:59;;;;;;;5.25;1.98;;;9.50;99.90;;;;;;6223498;23;20004;-93
2023/03/16 10:31:27;;;;;;;11.02;4.10;;;9.50;99.90;;;;;;6223086;23;20012;-94
2023/03/16 10:34:01;;;;;;;7.45;2.58;;;9.60;99.90;;;;;;6252148;23;20473;-95
2023/03/16 10:36:33;;;;;;;4.78;1.60;;;9.70;99.90;;;;;;6226060;23;20024;-93
2023/03/16 10:39:06;;;;;;;8.35;2.00;;;9.70;99.90;;;;;;6217736;23;20043;-92
2023/03/16 10:41:38;;;;;;;10.40;3.05;;;9.80;99.90;;;;;;6218372;23;20008;-94
2023/03/16 10:44:13;;;;;;;4.32;1.63;;;9.70;99.90;;;;;;6217104;23;20008;-94
2023/03/16 10:46:57;;;;;;;10.85;3.40;;;9.80;99.90;;;;;;6217241;23;20501;-93
2023/03/16 10:49:26;;;;;;;15.15;2.97;;;9.90;99.90;;;;;;6218064;23;20060;-94
2023/03/16 10:51:55;;;;;;;8.48;1.73;;;9.90;99.90;;;;;;6220465;23;20012;-92
2023/03/16 10:54:29;;;;;;;9.48;1.83;;;9.90;99.90;;;;;;6218578;23;20005;-94
2023/03/16 10:56:56;;;;;;;8.70;1.88;;;10.00;99.90;;;;;;6217177;23;20059;-94
2023/03/16 10:59:34;;;;;;;5.82;1.80;;;10.10;99.90;;;;;;6216581;23;20448;-94
2023/03/16 11:02:02;;;;;;;6.68;1.63;;;10.10;99.90;;;;;;6216916;23;20019;-93
2023/03/16 11:04:32;;;;;;;8.15;1.70;;;10.20;99.90;;;;;;6216957;23;20004;-92
2023/03/16 11:06:58;;;;;;;5.13;1.38;;;10.30;99.90;;;;;;6217171;23;20151;-93
2023/03/16 11:09:32;;;;;;;9.48;3.08;;;10.30;99.90;;;;;;6216808;23;20009;-94
2023/03/16 11:12:02;;;;;;;7.22;1.70;;;10.40;99.90;;;;;;6217274;23;20009;-94
2023/03/16 11:14:28;;;;;;;5.70;1.73;;;10.40;99.90;;;;;;6217870;23;20032;-94
2023/03/16 11:17:27;;;;;;;9.98;1.67;;;10.40;99.90;;;;;;6217906;23;20012;-94
2023/03/16 11:20:04;;;;;;;11.15;2.15;;;10.40;99.90;;;;;;6216776;23;20070;-94
2023/03/16 11:22:33;;;;;;;8.27;2.33;;;10.40;99.90;;;;;;6217589;23;19997;-94
2023/03/16 11:25:01;;;;;;;6.63;1.60;;;10.30;99.90;;;;;;6218184;23;20009;-92
2023/03/16 11:27:50;;;;;;;12.68;1.55;;;10.30;99.90;;;;;;6217986;23;20336;-93
2023/03/16 11:30:29;;;;;;;12.45;1.75;;;10.30;99.90;;;;;;6217342;23;20047;-94
2023/03/16 11:32:59;;;;;;;9.63;1.95;;;10.30;99.90;;;;;;6217399;23;20051;-93
2023/03/16 11:35:59;;;;;;;8.48;1.90;;;10.30;99.90;;;;;;6218199;23;20032;-95
2023/03/16 11:38:47;;;;;;;9.00;1.85;;;10.30;99.90;;;;;;6220492;23;20013;-93
2023/03/16 11:41:49;;;;;;;12.80;2.28;;;10.20;99.90;;;;;;6220769;23;20432;-95
2023/03/16 11:44:21;;;;;;;11.45;2.03;;;10.20;99.90;;;;;;6122636;23;20022;-94
2023/03/16 11:47:18;;;;;;;14.18;2.40;;;10.20;99.90;;;;;;6122812;23;20006;-94
2023/03/16 11:49:49;;;;;;;12.85;2.33;;;10.30;99.90;;;;;;6124724;23;19982;-93
2023/03/16 11:52:26;;;;;;;11.05;2.38;;;10.30;99.90;;;;;;6126813;23;20017;-93
2023/03/16 11:55:23;;;;;;;14.32;2.58;;;10.30;99.90;;;;;;6123703;23;20028;-94
2023/03/16 11:57:57;;;;;;;12.45;2.70;;;10.30;99.90;;;;;;6110695;23;20013;-94
2023/03/16 12:00:45;;;;;;;7.28;1.95;;;10.30;99.90;;;;;;6103502;23;20024;-95
2023/03/16 12:03:38;;;;;;;7.63;2.55;;;10.40;99.90;;;;;;6102781;23;20089;-94
2023/03/16 12:06:28;;;;;;;17.10;5.00;;;10.30;99.90;;;;;;6101715;23;20014;-95
2023/03/16 12:09:21;;;;;;;4.95;1.50;;;10.30;99.90;;;;;;6101126;23;20010;-94
2023/03/16 12:12:01;;;;;;;6.22;1.80;;;10.40;99.90;;;;;;6102560;23;20033;-93
2023/03/16 12:14:35;;;;;;;13.23;2.57;;;10.40;99.90;;;;;;6105021;23;20010;-96
2023/03/16 12:17:15;;;;;;;6.18;1.83;;;10.40;99.90;;;;;;6113663;23;20005;-94
2023/03/16 12:19:53;;;;;;;8.80;2.10;;;10.30;99.90;;;;;;6113405;23;20457;-94
2023/03/16 12:22:23;;;;;;;9.10;2.30;;;10.40;99.90;;;;;;6217915;23;20035;-95
2023/03/16 12:24:49;;;;;;;15.47;2.30;;;10.40;99.90;;;;;;6216839;23;20004;-94
2023/03/16 12:27:26;;;;;;;11.23;1.98;;;10.50;99.90;;;;;;6217308;23;20012;-95
2023/03/16 12:30:12;;;;;;;9.45;1.83;;;10.60;99.90;;;;;;6218572;23;20015;-94
2023/03/16 12:32:52;;;;;;;8.32;2.47;;;10.60;99.90;;;;;;6221023;23;20035;-95
2023/03/16 12:35:42;;;;;;;9.85;1.98;;;10.80;99.90;;;;;;6219621;23;20035;-95
2023/03/16 12:38:23;;;;;;;5.80;1.65;;;10.80;99.90;;;;;;6217961;23;20012;-93
2023/03/16 12:41:12;;;;;;;8.63;1.65;;;10.90;99.90;;;;;;6217206;23;20435;-94
2023/03/16 12:44:04;;;;;;;6.22;1.67;;;10.90;99.90;;;;;;6217002;23;20008;-96
2023/03/16 12:47:14;;;;;;;12.77;1.85;;;11.00;99.90;;;;;;6218008;23;20012;-95
2023/03/16 12:49:40;;;;;;;6.35;1.58;;;11.10;99.90;;;;;;6218066;23;20004;-94
2023/03/16 12:52:14;;;;;;;4.25;1.60;;;11.10;99.90;;;;;;6217585;23;20004;-95
2023/03/16 12:55:14;;;;;;;9.20;1.90;;;11.10;99.90;;;;;;6220298;23;20004;-95
2023/03/16 12:57:46;;;;;;;6.18;1.58;;;11.10;99.90;;;;;;6204015;23;20052;-95
2023/03/16 13:00:14;;;;;;;4.47;1.45;;;11.10;99.90;;;;;;6217320;23;20008;-95
2023/03/16 13:03:18;;;;;;;6.25;1.65;;;11.10;99.90;;;;;;6218640;23;20019;-94
2023/03/16 13:06:02;;;;;;;7.47;1.80;;;11.10;99.90;;;;;;6201624;23;20000;-95
2023/03/16 13:08:41;;;;;;;3.85;1.42;;;11.10;99.90;;;;;;6217987;23;20420;-95